Time;durP1;ratioP1;P1;durP2;ratioP2;P2;SDS_P1;SDS_P2;PMS_P1;PMS_P2;Temp;Humidity;BMP_temperature;BMP_pressure;BME280_temperature;BME280_humidity;BME280_pressure;Samples;Min_cycle;Max_cycle;Signal;HPM_P1;HPM_P2
2022/03/23 00:02:26;;;;;;;22.27;11.32;;;9.60;67.50;;;;;;4930202;29;20020;-82
2022/03/23 00:04:53;;;;;;;17.55;9.55;;;9.60;67.70;;;;;;4901236;28;20363;-82
2022/03/23 00:07:20;;;;;;;17.85;9.43;;;9.60;67.80;;;;;;4929175;28;20040;-82
2022/03/23 00:09:48;;;;;;;21.25;10.60;;;9.60;67.90;;;;;;4927527;28;20047;-84
2022/03/23 00:12:15;;;;;;;17.20;9.20;;;9.50;67.90;;;;;;4913735;28;20039;-82
2022/03/23 00:14:42;;;;;;;15.70;8.95;;;9.50;68.00;;;;;;4913480;28;20387;-79
2022/03/23 00:17:09;;;;;;;15.85;8.88;;;9.40;68.00;;;;;;4926484;28;20042;-81
2022/03/23 00:19:35;;;;;;;17.65;8.68;;;9.40;68.20;;;;;;4925696;28;20039;-82
2022/03/23 00:22:03;;;;;;;19.58;8.93;;;9.40;68.30;;;;;;4898921;28;20030;-82
2022/03/23 00:24:32;;;;;;;19.08;8.73;;;9.30;68.40;;;;;;4941970;28;20047;-82
2022/03/23 00:26:58;;;;;;;15.45;7.85;;;9.20;68.40;;;;;;4900981;28;20952;-82
2022/03/23 00:29:25;;;;;;;16.13;8.45;;;9.20;68.50;;;;;;4911488;28;20044;-82
2022/03/23 00:31:51;;;;;;;16.55;8.25;;;9.20;68.60;;;;;;4899784;28;20394;-82
2022/03/23 00:34:18;;;;;;;15.88;9.05;;;9.10;68.70;;;;;;4911924;29;20024;-82
2022/03/23 00:36:44;;;;;;;17.00;9.10;;;9.10;68.90;;;;;;4898750;29;20031;-82
2022/03/23 00:39:11;;;;;;;17.95;9.48;;;9.00;69.00;;;;;;4931507;29;20035;-81
2022/03/23 00:41:37;;;;;;;14.20;8.93;;;8.90;69.00;;;;;;4911077;28;20027;-82
2022/03/23 00:44:04;;;;;;;17.50;8.68;;;8.90;69.10;;;;;;4927633;29;20038;-81
2022/03/23 00:46:30;;;;;;;16.08;8.00;;;8.80;69.20;;;;;;4928248;28;20494;-82
2022/03/23 00:48:57;;;;;;;16.20;10.02;;;8.80;69.30;;;;;;4909452;29;20043;-82
2022/03/23 00:51:25;;;;;;;16.80;8.77;;;8.80;69.40;;;;;;4910669;28;20039;-82
2022/03/23 00:53:52;;;;;;;12.95;7.30;;;8.70;69.30;;;;;;4910810;29;20038;-82
2022/03/23 00:56:18;;;;;;;18.85;9.15;;;8.70;69.30;;;;;;4900886;28;20039;-82
2022/03/23 00:58:45;;;;;;;16.25;8.70;;;8.70;69.40;;;;;;4902089;29;20031;-83
2022/03/23 01:01:13;;;;;;;17.60;9.25;;;8.70;69.40;;;;;;4922799;28;20043;-82
2022/03/23 01:03:40;;;;;;;13.73;8.13;;;8.70;69.50;;;;;;4926132;28;20046;-83
2022/03/23 01:06:08;;;;;;;17.10;8.93;;;8.70;69.50;;;;;;4911187;28;20046;-82
2022/03/23 01:08:34;;;;;;;16.83;8.73;;;8.70;69.40;;;;;;4925861;28;20530;-82
2022/03/23 01:11:01;;;;;;;16.92;8.98;;;8.70;69.20;;;;;;4921695;28;20027;-82
2022/03/23 01:13:28;;;;;;;16.15;8.45;;;8.70;69.10;;;;;;4926676;28;20501;-82
2022/03/23 01:15:55;;;;;;;12.35;7.53;;;8.70;69.10;;;;;;4914564;29;20498;-82
2022/03/23 01:18:21;;;;;;;15.95;9.10;;;8.70;69.10;;;;;;4885504;28;20051;-82
2022/03/23 01:20:47;;;;;;;17.25;8.18;;;8.60;69.10;;;;;;4913570;29;20046;-82
2022/03/23 01:23:14;;;;;;;18.33;9.05;;;8.60;69.20;;;;;;4888542;28;20047;-82
2022/03/23 01:25:42;;;;;;;17.65;9.85;;;8.60;69.20;;;;;;4920186;28;20042;-82
2022/03/23 01:28:09;;;;;;;18.77;9.75;;;8.60;69.20;;;;;;4918454;28;20359;-81
2022/03/23 01:30:37;;;;;;;18.70;9.68;;;8.70;69.20;;;;;;4913243;28;20035;-82
2022/03/23 01:33:03;;;;;;;14.50;8.90;;;8.70;68.90;;;;;;4884157;28;20028;-82
2022/03/23 01:35:30;;;;;;;16.50;9.18;;;8.70;68.70;;;;;;4916230;28;20047;-82
2022/03/23 01:37:56;;;;;;;18.70;10.77;;;8.80;68.60;;;;;;4931518;28;20398;-83
2022/03/23 01:40:23;;;;;;;18.67;10.70;;;8.80;68.40;;;;;;4922946;28;20054;-82
2022/03/23 01:42:49;;;;;;;12.75;7.88;;;8.90;68.90;;;;;;4920108;28;20426;-83
2022/03/23 01:45:16;;;;;;;16.65;10.13;;;8.90;68.10;;;;;;4917989;28;20036;-82
2022/03/23 01:47:43;;;;;;;16.65;9.15;;;9.00;67.90;;;;;;4928554;28;20027;-82
2022/03/23 01:50:09;;;;;;;18.65;9.80;;;9.00;67.60;;;;;;4924730;28;20072;-82
2022/03/23 01:52:38;;;;;;;14.80;9.40;;;9.00;67.50;;;;;;4914165;29;20032;-82
2022/03/23 01:55:13;;;;;;;16.45;8.75;;;9.00;67.50;;;;;;4933535;29;20035;-82
2022/03/23 01:57:44;;;;;;;14.82;7.63;;;9.00;67.50;;;;;;4914993;28;20042;-83
2022/03/23 02:00:12;;;;;;;13.73;7.82;;;9.00;67.50;;;;;;4911374;28;20046;-83
2022/03/23 02:02:41;;;;;;;14.98;7.88;;;8.90;67.40;;;;;;4918029;28;20039;-83
2022/03/23 02:05:12;;;;;;;18.48;9.25;;;8.90;67.40;;;;;;4902016;29;20050;-82
2022/03/23 02:07:45;;;;;;;13.88;9.15;;;8.90;67.90;;;;;;4904382;28;20479;-82
2022/03/23 02:10:13;;;;;;;15.48;8.85;;;8.90;67.30;;;;;;4897287;28;20047;-82
2022/03/23 02:13:02;;;;;;;16.02;8.80;;;8.80;67.20;;;;;;4931637;28;20034;-82
2022/03/23 02:15:29;;;;;;;16.63;8.80;;;8.70;67.20;;;;;;4915880;28;20395;-82
2022/03/23 02:17:57;;;;;;;14.60;7.55;;;8.60;67.30;;;;;;4898948;29;20046;-82
2022/03/23 02:20:25;;;;;;;13.88;8.35;;;8.50;67.40;;;;;;4909666;28;20043;-82
2022/03/23 02:22:51;;;;;;;18.10;8.57;;;8.50;68.10;;;;;;4912659;28;20039;-82
2022/03/23 02:25:24;;;;;;;14.75;7.60;;;8.40;67.40;;;;;;4930969;29;20030;-82
2022/03/23 02:27:52;;;;;;;16.85;7.82;;;8.50;67.40;;;;;;4915316;28;20030;-83
2022/03/23 02:30:19;;;;;;;13.60;8.57;;;8.40;67.30;;;;;;4917126;28;20042;-82
2022/03/23 02:32:46;;;;;;;16.35;9.05;;;8.40;67.30;;;;;;4928712;29;20347;-82
2022/03/23 02:35:12;;;;;;;19.17;8.93;;;8.40;67.20;;;;;;4891483;29;20031;-82
2022/03/23 02:37:40;;;;;;;16.70;8.60;;;8.40;67.20;;;;;;4916793;28;20374;-82
2022/03/23 02:40:08;;;;;;;14.88;7.40;;;8.40;67.00;;;;;;4926168;28;20408;-82
2022/03/23 02:42:39;;;;;;;13.00;7.53;;;8.40;67.00;;;;;;4918264;29;20392;-81
2022/03/23 02:45:07;;;;;;;15.00;9.00;;;8.40;67.00;;;;;;4928061;29;20042;-82
2022/03/23 02:47:33;;;;;;;14.52;8.65;;;8.40;67.00;;;;;;4916180;29;20380;-82
2022/03/23 02:50:01;;;;;;;16.98;8.90;;;8.40;66.90;;;;;;4928078;29;20070;-83
2022/03/23 02:52:28;;;;;;;11.43;7.25;;;8.40;66.80;;;;;;4917006;29;20486;-82
2022/03/23 03:03:32;;;;;;;14.27;7.72;;;8.40;66.50;;;;;;4932708;29;20364;-82
2022/03/23 03:06:01;;;;;;;16.33;10.05;;;8.40;66.40;;;;;;4925931;28;20023;-82
2022/03/23 03:08:45;;;;;;;21.20;10.32;;;8.40;66.40;;;;;;4918268;29;20036;-82
2022/03/23 03:11:12;;;;;;;19.65;10.20;;;8.40;66.30;;;;;;4928044;29;20050;-82
2022/03/23 03:13:41;;;;;;;18.67;9.50;;;8.50;66.10;;;;;;4929097;28;20031;-82
2022/03/23 03:16:07;;;;;;;17.77;10.93;;;8.50;66.10;;;;;;4930759;28;20031;-82
2022/03/23 03:18:35;;;;;;;13.48;8.38;;;8.50;66.10;;;;;;4945715;28;20415;-82
2022/03/23 03:21:07;;;;;;;16.98;8.80;;;8.50;66.20;;;;;;4913952;28;20051;-81
2022/03/23 03:23:36;;;;;;;15.98;8.88;;;8.50;66.10;;;;;;4945998;28;20022;-82
2022/03/23 03:26:05;;;;;;;18.27;9.88;;;8.40;66.10;;;;;;4902715;29;20391;-82
2022/03/23 03:28:36;;;;;;;16.88;9.32;;;8.40;66.30;;;;;;4944616;28;20043;-82
2022/03/23 03:31:14;;;;;;;15.82;9.50;;;8.30;66.40;;;;;;4926875;28;20043;-82
2022/03/23 03:33:40;;;;;;;17.38;9.73;;;8.30;66.50;;;;;;4930675;28;20467;-82
2022/03/23 03:36:08;;;;;;;15.75;8.45;;;8.20;66.50;;;;;;4929783;28;20378;-82
2022/03/23 03:38:35;;;;;;;17.60;9.85;;;8.10;66.70;;;;;;4915282;29;20038;-81
2022/03/23 03:41:02;;;;;;;17.13;10.18;;;8.10;66.80;;;;;;4926303;28;20038;-82
2022/03/23 03:43:30;;;;;;;15.80;9.40;;;8.00;66.90;;;;;;4944461;28;20034;-82
2022/03/23 03:45:57;;;;;;;21.02;8.88;;;8.00;67.10;;;;;;4931358;28;20505;-82
2022/03/23 03:48:24;;;;;;;19.58;9.30;;;7.90;67.20;;;;;;4911479;29;20060;-81
2022/03/23 03:50:51;;;;;;;16.92;9.50;;;7.80;67.40;;;;;;4899075;29;20484;-82
2022/03/23 03:53:17;;;;;;;16.50;9.48;;;7.80;67.40;;;;;;4909685;29;20032;-82
2022/03/23 03:55:44;;;;;;;15.55;8.35;;;7.80;67.60;;;;;;4898866;29;20352;-82
2022/03/23 03:58:12;;;;;;;15.63;9.05;;;7.70;67.60;;;;;;4900440;29;20051;-82
2022/03/23 04:00:39;;;;;;;15.20;8.23;;;7.60;67.60;;;;;;4897356;29;20423;-81
2022/03/23 04:03:06;;;;;;;18.40;8.70;;;7.60;67.80;;;;;;4898903;29;20098;-82
2022/03/23 04:05:33;;;;;;;14.65;8.63;;;7.60;67.90;;;;;;4895808;29;20391;-81
2022/03/23 04:08:00;;;;;;;16.27;8.55;;;7.50;67.90;;;;;;4899948;29;20527;-81
2022/03/23 04:10:27;;;;;;;17.83;9.70;;;7.50;67.90;;;;;;4925808;29;20040;-81
2022/03/23 04:12:54;;;;;;;15.20;8.57;;;7.50;67.90;;;;;;4879488;29;20051;-81
2022/03/23 04:15:21;;;;;;;14.80;9.38;;;7.50;67.90;;;;;;4909293;29;20028;-81
2022/03/23 04:17:48;;;;;;;15.80;8.68;;;7.50;67.90;;;;;;4911652;29;20472;-82
2022/03/23 04:20:14;;;;;;;18.35;10.15;;;7.50;67.90;;;;;;4893605;29;20036;-81
2022/03/23 04:22:41;;;;;;;20.52;10.50;;;7.50;67.90;;;;;;4897084;29;20055;-82
2022/03/23 04:25:09;;;;;;;17.85;10.23;;;7.50;67.90;;;;;;4897227;29;20059;-82
2022/03/23 04:27:48;;;;;;;21.23;11.82;;;7.50;67.90;;;;;;4909471;29;20036;-82
2022/03/23 04:30:17;;;;;;;21.17;12.63;;;7.60;67.90;;;;;;4909713;29;20043;-82
2022/03/23 04:32:46;;;;;;;21.02;12.05;;;7.70;67.70;;;;;;4908665;29;20031;-81
2022/03/23 04:35:14;;;;;;;21.90;12.82;;;7.80;67.60;;;;;;4895814;29;20039;-82
2022/03/23 04:37:40;;;;;;;22.67;13.00;;;7.80;67.40;;;;;;4926087;29;20036;-81
2022/03/23 04:40:07;;;;;;;20.95;12.60;;;7.90;67.30;;;;;;4907941;29;20034;-82
2022/03/23 04:42:38;;;;;;;22.70;12.25;;;7.90;67.20;;;;;;4908483;29;20403;-82
2022/03/23 04:45:06;;;;;;;21.88;11.80;;;7.90;67.20;;;;;;4909211;29;20032;-82
2022/03/23 04:47:36;;;;;;;17.52;11.57;;;7.90;67.20;;;;;;4887153;29;20063;-82
2022/03/23 04:50:05;;;;;;;18.80;11.68;;;7.90;67.20;;;;;;4894131;29;20518;-82
2022/03/23 04:52:33;;;;;;;15.82;10.65;;;7.90;67.30;;;;;;4925960;29;20051;-81
2022/03/23 04:54:59;;;;;;;16.00;8.80;;;7.80;67.30;;;;;;4924849;29;20024;-81
2022/03/23 04:57:27;;;;;;;18.40;11.32;;;7.80;67.40;;;;;;4894910;29;20082;-82
2022/03/23 04:59:58;;;;;;;18.58;10.93;;;7.70;67.40;;;;;;4877166;29;20526;-82
2022/03/23 05:02:26;;;;;;;16.33;9.90;;;7.70;67.50;;;;;;4911152;29;20044;-82
2022/03/23 05:04:52;;;;;;;16.90;9.48;;;7.60;67.60;;;;;;4910156;29;20040;-82
2022/03/23 05:07:20;;;;;;;17.58;10.32;;;7.60;67.80;;;;;;4908544;29;20039;-82
2022/03/23 05:09:46;;;;;;;13.80;8.23;;;7.50;67.90;;;;;;4878215;29;20039;-82
2022/03/23 05:12:12;;;;;;;16.00;8.20;;;7.50;68.00;;;;;;4894219;29;20036;-82
2022/03/23 05:14:39;;;;;;;18.67;10.38;;;7.40;68.00;;;;;;4897720;29;20043;-82
2022/03/23 05:17:05;;;;;;;17.83;9.15;;;7.40;68.20;;;;;;4880417;29;20051;-83
2022/03/23 05:19:32;;;;;;;19.43;11.07;;;7.40;68.30;;;;;;4909198;29;20035;-82
2022/03/23 05:21:58;;;;;;;15.52;8.90;;;7.30;68.30;;;;;;4895273;29;20051;-82
2022/03/23 05:24:25;;;;;;;17.92;9.85;;;7.30;68.40;;;;;;4925554;29;20058;-81
2022/03/23 05:26:52;;;;;;;16.55;9.40;;;7.30;68.50;;;;;;4881437;29;20055;-83
2022/03/23 05:29:19;;;;;;;21.02;9.43;;;7.20;68.60;;;;;;4894123;29;20043;-82
2022/03/23 05:31:45;;;;;;;17.92;10.23;;;7.20;68.70;;;;;;4906532;29;20040;-82
2022/03/23 05:34:12;;;;;;;22.77;10.77;;;7.10;68.80;;;;;;4894379;29;20854;-82
2022/03/23 05:36:38;;;;;;;18.40;9.07;;;7.10;68.90;;;;;;4925261;29;20028;-82
2022/03/23 05:39:04;;;;;;;17.15;9.90;;;7.00;69.00;;;;;;4909325;29;20051;-82
2022/03/23 05:41:31;;;;;;;17.63;10.00;;;7.00;69.20;;;;;;4878488;29;20054;-82
2022/03/23 05:43:57;;;;;;;19.42;10.25;;;6.90;69.30;;;;;;4890285;29;20039;-81
2022/03/23 05:46:25;;;;;;;17.48;10.10;;;6.90;69.40;;;;;;4926420;29;20043;-81
2022/03/23 05:48:53;;;;;;;17.67;10.82;;;6.90;69.60;;;;;;4931030;28;20048;-82
2022/03/23 05:51:20;;;;;;;22.25;10.80;;;6.90;69.70;;;;;;4942287;28;20466;-81
2022/03/23 05:53:47;;;;;;;20.13;10.48;;;6.80;69.80;;;;;;4930234;28;20019;-82
2022/03/23 05:56:14;;;;;;;17.25;10.48;;;6.80;69.90;;;;;;4902578;28;20035;-82
2022/03/23 05:58:40;;;;;;;16.88;10.15;;;6.80;70.00;;;;;;4928955;28;20027;-82
2022/03/23 06:01:07;;;;;;;19.92;11.63;;;6.80;70.00;;;;;;4943247;28;20043;-81
2022/03/23 06:03:35;;;;;;;17.13;10.05;;;6.80;70.20;;;;;;4917047;28;20035;-83
2022/03/23 06:06:03;;;;;;;18.23;10.07;;;6.80;70.20;;;;;;4913027;28;20036;-83
2022/03/23 06:08:29;;;;;;;26.10;11.68;;;6.90;70.40;;;;;;4933150;29;20031;-83
2022/03/23 06:10:57;;;;;;;23.40;14.32;;;6.90;70.30;;;;;;4915275;29;20051;-85
2022/03/23 06:13:23;;;;;;;22.25;13.15;;;7.00;70.40;;;;;;4934910;28;20035;-84
2022/03/23 06:15:50;;;;;;;21.83;12.55;;;7.10;70.30;;;;;;4945891;28;20379;-84
2022/03/23 06:18:16;;;;;;;27.95;13.32;;;7.20;70.40;;;;;;4914614;28;20039;-83
2022/03/23 06:20:43;;;;;;;21.98;11.35;;;7.30;70.40;;;;;;4918111;28;20061;-83
2022/03/23 06:23:09;;;;;;;21.30;11.73;;;7.40;70.30;;;;;;4899497;28;20047;-83
2022/03/23 06:25:36;;;;;;;23.02;11.07;;;7.50;70.20;;;;;;4915843;29;20489;-83
2022/03/23 06:28:05;;;;;;;22.23;11.95;;;7.60;70.20;;;;;;4914392;28;20039;-83
2022/03/23 06:30:31;;;;;;;21.58;12.52;;;7.70;70.20;;;;;;4913316;29;20051;-82
2022/03/23 06:32:58;;;;;;;23.75;13.02;;;7.90;70.10;;;;;;4931264;29;20028;-82
2022/03/23 06:35:26;;;;;;;24.63;13.63;;;8.00;70.00;;;;;;4931108;28;20031;-83
2022/03/23 06:37:52;;;;;;;23.13;13.57;;;8.20;69.90;;;;;;4931508;28;20028;-81
2022/03/23 06:40:20;;;;;;;23.52;13.50;;;8.30;69.80;;;;;;4929499;29;20047;-81
2022/03/23 06:42:48;;;;;;;23.08;14.05;;;8.50;69.80;;;;;;4930969;28;20031;-81
2022/03/23 06:45:14;;;;;;;23.98;12.63;;;8.60;69.70;;;;;;4916971;28;20047;-81
2022/03/23 06:47:40;;;;;;;25.45;14.93;;;8.70;69.60;;;;;;4928447;28;20383;-83
2022/03/23 06:50:07;;;;;;;23.55;15.10;;;8.80;69.50;;;;;;4920746;29;20044;-82
2022/03/23 06:52:34;;;;;;;27.45;15.50;;;9.00;69.40;;;;;;4899583;29;20043;-82
2022/03/23 06:55:01;;;;;;;24.92;14.25;;;9.10;69.20;;;;;;4914272;29;20027;-83
2022/03/23 06:57:40;;;;;;;27.05;16.25;;;9.30;69.00;;;;;;4913397;29;20036;-82
2022/03/23 07:00:12;;;;;;;23.77;14.55;;;9.40;68.70;;;;;;4925551;29;20426;-82
2022/03/23 07:02:40;;;;;;;;;;;9.50;68.40;;;;;;4926620;29;20391;-83
2022/03/23 07:05:08;;;;;;;26.30;16.00;;;9.70;68.20;;;;;;4926337;29;19914;-83
2022/03/23 07:07:36;;;;;;;23.58;15.75;;;9.80;68.00;;;;;;4914106;29;20034;-82
2022/03/23 07:10:04;;;;;;;27.90;17.88;;;9.90;67.70;;;;;;4925996;29;20383;-80
2022/03/23 07:12:31;;;;;;;22.10;13.98;;;10.10;67.50;;;;;;4927653;29;20035;-81
2022/03/23 07:14:58;;;;;;;27.33;16.42;;;10.20;68.00;;;;;;4912891;29;20395;-81
2022/03/23 07:17:24;;;;;;;26.20;15.07;;;10.40;67.10;;;;;;4904471;29;20046;-82
2022/03/23 07:19:51;;;;;;;29.65;18.65;;;10.50;66.80;;;;;;4911603;29;20423;-82
2022/03/23 07:22:17;;;;;;;25.17;15.80;;;10.60;66.40;;;;;;4927652;29;20051;-81
2022/03/23 07:24:47;;;;;;;24.25;16.33;;;10.70;66.30;;;;;;4896034;29;20039;-81
2022/03/23 07:27:13;;;;;;;29.73;18.08;;;10.90;66.10;;;;;;4925778;29;20046;-82
2022/03/23 07:29:40;;;;;;;25.73;15.60;;;11.00;65.70;;;;;;4910103;29;20048;-82
2022/03/23 07:32:07;;;;;;;24.85;16.85;;;11.10;65.30;;;;;;4925093;29;20039;-82
2022/03/23 07:34:34;;;;;;;26.40;18.10;;;11.20;65.10;;;;;;4928845;29;20039;-81
2022/03/23 07:37:01;;;;;;;29.27;18.20;;;11.40;64.50;;;;;;4921585;29;20024;-82
2022/03/23 07:39:32;;;;;;;29.92;20.27;;;11.50;63.90;;;;;;4922361;29;20048;-82
2022/03/23 07:42:02;;;;;;;29.55;18.40;;;11.60;63.20;;;;;;4909718;29;20050;-82
2022/03/23 07:44:35;;;;;;;23.27;15.68;;;11.60;63.10;;;;;;4927007;29;20039;-82
2022/03/23 07:47:11;;;;;;;26.02;16.20;;;11.70;63.20;;;;;;4925834;29;20391;-81
2022/03/23 07:49:41;;;;;;;26.40;17.83;;;11.90;63.30;;;;;;4929430;28;20066;-81
2022/03/23 07:52:18;;;;;;;30.35;20.20;;;12.00;62.70;;;;;;4928748;29;20376;-83
2022/03/23 07:55:04;;;;;;;28.63;17.38;;;12.10;62.10;;;;;;4930571;29;20490;-82
2022/03/23 07:57:32;;;;;;;26.05;18.25;;;12.20;62.30;;;;;;4932387;28;20054;-82
2022/03/23 08:00:11;;;;;;;31.20;19.77;;;12.30;62.10;;;;;;4930185;28;20416;-82
2022/03/23 08:02:45;;;;;;;26.13;17.80;;;12.40;61.60;;;;;;4933567;28;20038;-83
2022/03/23 08:05:11;;;;;;;28.38;18.48;;;12.50;61.80;;;;;;4932858;28;20036;-82
2022/03/23 08:07:45;;;;;;;27.15;18.92;;;12.70;61.60;;;;;;4935468;28;20047;-82
2022/03/23 08:10:12;;;;;;;26.33;18.75;;;12.80;61.40;;;;;;4946204;28;20529;-82
2022/03/23 08:12:56;;;;;;;27.27;19.33;;;12.90;60.90;;;;;;4932445;28;20410;-81
2022/03/23 08:15:24;;;;;;;26.60;19.05;;;13.00;61.00;;;;;;4956815;28;20423;-80
2022/03/23 08:17:52;;;;;;;29.30;20.02;;;13.20;60.80;;;;;;4921828;29;20399;-84
2022/03/23 08:20:35;;;;;;;30.85;19.25;;;13.30;60.70;;;;;;4920277;29;20352;-80
2022/03/23 08:23:15;;;;;;;31.10;20.00;;;13.40;60.60;;;;;;4933511;29;20051;-82
2022/03/23 08:26:04;;;;;;;33.78;20.20;;;13.60;60.00;;;;;;4923621;29;20402;-85
2022/03/23 08:29:11;;;;;;;;;;;;;;;;;;;;;
2022/03/23 08:31:39;;;;;;;34.17;20.95;;;13.80;59.20;;;;;;4938679;29;20046;-79
2022/03/23 08:34:06;;;;;;;35.47;21.88;;;13.90;59.20;;;;;;4931055;29;20490;-79
2022/03/23 08:36:33;;;;;;;33.00;21.35;;;14.10;59.30;;;;;;4932297;28;20039;-81
2022/03/23 08:39:00;;;;;;;36.03;20.73;;;14.10;58.20;;;;;;4940765;29;20039;-79
2022/03/23 08:41:27;;;;;;;28.23;19.83;;;14.20;58.10;;;;;;4952978;29;20038;-83
2022/03/23 08:43:54;;;;;;;33.90;23.85;;;14.20;58.40;;;;;;4921788;28;20040;-82
2022/03/23 08:46:21;;;;;;;30.67;22.33;;;14.30;57.90;;;;;;4911683;28;20035;-82
2022/03/23 08:48:49;;;;;;;29.65;21.20;;;14.40;57.60;;;;;;4957426;28;20062;-79
2022/03/23 08:51:16;;;;;;;30.50;19.95;;;14.40;58.30;;;;;;4921468;29;20051;-82
2022/03/23 08:53:42;;;;;;;26.48;18.83;;;14.50;58.00;;;;;;4927528;29;20046;-81
2022/03/23 08:56:10;;;;;;;28.80;19.55;;;14.70;58.30;;;;;;4912107;29;20043;-80
2022/03/23 08:58:47;;;;;;;31.52;22.63;;;14.90;58.40;;;;;;4914988;29;20047;-79
2022/03/23 09:01:15;;;;;;;25.42;18.33;;;15.00;58.10;;;;;;4939048;29;20039;-78
2022/03/23 09:03:43;;;;;;;31.48;22.40;;;15.10;57.90;;;;;;4904888;29;20048;-77
2022/03/23 09:06:10;;;;;;;36.42;23.15;;;15.30;58.00;;;;;;4939633;29;20047;-81
2022/03/23 09:08:37;;;;;;;25.45;20.27;;;15.40;57.00;;;;;;4933908;29;20869;-81
2022/03/23 09:11:04;;;;;;;27.48;19.30;;;15.40;57.20;;;;;;4918072;29;20035;-81
2022/03/23 09:13:31;;;;;;;29.98;20.60;;;15.50;57.50;;;;;;4937181;29;20027;-81
2022/03/23 09:15:57;;;;;;;28.77;21.70;;;15.70;57.50;;;;;;4921548;29;20348;-83
2022/03/23 09:18:26;;;;;;;32.58;22.52;;;15.70;57.30;;;;;;4904902;29;20040;-82
2022/03/23 09:20:53;;;;;;;27.05;20.85;;;15.90;56.80;;;;;;4915814;29;20043;-82
2022/03/23 09:23:20;;;;;;;25.92;20.08;;;16.00;56.80;;;;;;4893406;29;20036;-82
2022/03/23 09:25:46;;;;;;;34.50;22.88;;;16.10;57.10;;;;;;4917741;29;20040;-82
2022/03/23 09:28:13;;;;;;;29.20;23.25;;;16.20;56.70;;;;;;4907237;29;20391;-82
2022/03/23 09:30:39;;;;;;;30.55;23.08;;;16.20;56.40;;;;;;4905306;29;20055;-83
2022/03/23 09:33:07;;;;;;;32.78;23.98;;;16.30;56.20;;;;;;4897067;29;20407;-82
2022/03/23 09:35:33;;;;;;;31.73;23.40;;;16.40;56.40;;;;;;4910473;29;20040;-82
2022/03/23 09:38:03;;;;;;;28.63;21.88;;;16.50;56.60;;;;;;4907215;29;20040;-81
2022/03/23 09:40:31;;;;;;;33.17;22.13;;;16.60;56.60;;;;;;4889838;29;20387;-83
2022/03/23 09:43:03;;;;;;;31.80;24.30;;;16.70;56.30;;;;;;4904258;29;20040;-82
2022/03/23 09:47:57;;;;;;;31.27;22.52;;;17.00;55.20;;;;;;4913277;28;20040;-84
2022/03/23 09:50:31;;;;;;;34.45;23.98;;;17.10;54.40;;;;;;4939937;29;21462;-82
2022/03/23 09:52:59;;;;;;;38.85;27.63;;;17.20;54.40;;;;;;4921253;28;20490;-81
2022/03/23 09:55:26;;;;;;;36.50;25.52;;;17.30;54.40;;;;;;4949264;29;20024;-82
2022/03/23 09:57:57;;;;;;;30.63;22.48;;;17.40;51.40;;;;;;4923675;28;20030;-82
2022/03/23 10:00:27;;;;;;;30.13;22.13;;;17.30;50.90;;;;;;4929647;28;20042;-83
2022/03/23 10:02:57;;;;;;;36.40;23.85;;;17.30;51.60;;;;;;4939985;29;20364;-83
2022/03/23 10:05:45;;;;;;;31.17;22.38;;;17.40;49.90;;;;;;4938687;28;20031;-82
2022/03/23 10:08:32;;;;;;;33.88;23.95;;;17.40;49.50;;;;;;4955821;28;20042;-82
2022/03/23 10:11:16;;;;;;;36.88;24.08;;;17.50;49.80;;;;;;4929398;29;20055;-82
2022/03/23 10:14:14;;;;;;;34.50;24.63;;;17.60;49.70;;;;;;4910946;29;20054;-83
2022/03/23 10:17:02;;;;;;;30.63;23.17;;;17.70;48.60;;;;;;4935373;29;20039;-83
2022/03/23 10:19:28;;;;;;;35.42;25.08;;;17.90;49.40;;;;;;4923666;29;20050;-81
2022/03/23 10:22:07;;;;;;;31.13;23.63;;;17.90;48.30;;;;;;4947706;28;20043;-79
2022/03/23 10:24:35;;;;;;;30.40;24.60;;;18.00;48.50;;;;;;4941011;28;20395;-82
2022/03/23 10:27:13;;;;;;;30.33;23.48;;;18.20;48.30;;;;;;4921360;28;20051;-82
2022/03/23 10:29:42;;;;;;;27.80;23.15;;;18.50;48.60;;;;;;4920383;29;20487;-83
2022/03/23 10:32:10;;;;;;;32.92;22.02;;;18.60;46.90;;;;;;4931029;29;20070;-82
2022/03/23 10:35:06;;;;;;;30.08;23.90;;;18.90;46.40;;;;;;4935877;28;20345;-79
2022/03/23 10:37:39;;;;;;;24.50;20.92;;;19.10;46.80;;;;;;4929423;29;20047;-82
2022/03/23 10:40:18;;;;;;;28.65;22.52;;;19.40;45.70;;;;;;4925273;29;20043;-82
2022/03/23 10:42:50;;;;;;;25.70;19.63;;;19.60;44.20;;;;;;4945468;29;20050;-82
2022/03/23 10:45:31;;;;;;;25.00;18.35;;;19.80;44.10;;;;;;4919762;29;20042;-79
2022/03/23 10:48:28;;;;;;;25.60;19.48;;;20.00;43.00;;;;;;4949191;28;20043;-80
2022/03/23 10:50:58;;;;;;;25.45;19.63;;;20.20;42.70;;;;;;4908116;29;20082;-79
2022/03/23 10:53:44;;;;;;;22.63;18.83;;;20.50;42.00;;;;;;4931120;29;20039;-79
2022/03/23 10:56:10;;;;;;;22.88;19.25;;;20.80;42.50;;;;;;4940414;28;20031;-80
2022/03/23 10:58:38;;;;;;;31.10;24.23;;;21.00;42.40;;;;;;4930864;29;20019;-78
2022/03/23 11:01:09;;;;;;;26.40;20.65;;;21.20;42.10;;;;;;4931345;29;20039;-79
2022/03/23 11:03:47;;;;;;;28.02;21.83;;;21.40;42.30;;;;;;4948109;28;20035;-81
2022/03/23 11:06:25;;;;;;;26.05;22.58;;;21.60;42.70;;;;;;4942153;29;20058;-79
2022/03/23 11:15:46;;;;;;;28.08;23.00;;;21.90;42.70;;;;;;4926472;29;20035;-79
2022/03/23 11:18:20;;;;;;;30.25;22.35;;;22.80;42.00;;;;;;4944236;28;20051;-79
2022/03/23 11:20:53;;;;;;;24.92;21.23;;;23.00;40.70;;;;;;4955703;28;20058;-78
2022/03/23 11:23:41;;;;;;;27.40;20.80;;;23.10;41.60;;;;;;4932566;28;20489;-83
2022/03/23 11:26:12;;;;;;;24.95;19.98;;;23.30;41.00;;;;;;4927256;29;20039;-81
2022/03/23 11:28:43;;;;;;;29.60;22.10;;;23.40;39.50;;;;;;4942332;28;20047;-79
2022/03/23 11:31:12;;;;;;;29.13;22.33;;;23.60;39.50;;;;;;4938942;29;20506;-80
2022/03/23 11:33:48;;;;;;;26.13;20.70;;;23.60;40.20;;;;;;4947461;29;20095;-79
2022/03/23 11:36:17;;;;;;;26.73;20.63;;;23.70;39.80;;;;;;4936491;29;20034;-80
2022/03/23 11:38:44;;;;;;;24.92;18.08;;;23.80;39.30;;;;;;4931078;29;20043;-80
2022/03/23 11:41:14;;;;;;;23.73;18.48;;;24.00;39.10;;;;;;4935227;28;20492;-79
2022/03/23 11:43:41;;;;;;;22.27;16.88;;;24.30;38.40;;;;;;4939695;29;20369;-79
2022/03/23 11:46:10;;;;;;;20.92;16.17;;;24.70;37.70;;;;;;4930127;29;20395;-78
2022/03/23 11:48:55;;;;;;;21.35;18.13;;;25.10;36.70;;;;;;4942928;29;20054;-81
2022/03/23 11:51:33;;;;;;;22.75;17.35;;;25.30;36.10;;;;;;4920346;28;20498;-79
2022/03/23 11:54:09;;;;;;;23.10;16.98;;;25.70;36.70;;;;;;4950879;28;20090;-79
2022/03/23 11:56:48;;;;;;;24.40;15.80;;;26.10;35.40;;;;;;4929692;29;20028;-81
2022/03/23 11:59:22;;;;;;;20.95;18.02;;;26.40;35.70;;;;;;4946593;28;20503;-83
2022/03/23 12:01:50;;;;;;;19.17;13.27;;;26.80;35.50;;;;;;4924876;29;20043;-82
2022/03/23 12:04:24;;;;;;;21.73;16.02;;;27.00;33.20;;;;;;4946446;28;20046;-83
2022/03/23 12:07:00;;;;;;;26.13;19.60;;;27.10;33.90;;;;;;4918055;28;20050;-82
2022/03/23 12:09:37;;;;;;;17.60;11.30;;;27.30;34.10;;;;;;4921837;29;20050;-82
2022/03/23 12:12:05;;;;;;;13.70;9.73;;;27.10;30.70;;;;;;4920319;29;20035;-84
2022/03/23 12:14:37;;;;;;;20.50;14.77;;;27.20;30.70;;;;;;4932436;29;20062;-84
2022/03/23 12:17:08;;;;;;;21.65;17.17;;;27.50;31.10;;;;;;4947614;29;20035;-84
2022/03/23 12:19:53;;;;;;;19.63;12.30;;;27.60;32.50;;;;;;4924926;29;20402;-83
2022/03/23 12:22:52;;;;;;;14.65;8.27;;;27.60;29.60;;;;;;4921062;29;20035;-84
2022/03/23 12:26:03;;;;;;;13.63;6.68;;;27.50;28.80;;;;;;4871193;29;20066;-84
2022/03/23 12:28:45;;;;;;;18.98;12.07;;;27.60;29.20;;;;;;4904295;29;20062;-82
2022/03/23 12:31:14;;;;;;;;;;;27.90;29.60;;;;;;4932804;29;20031;-80
2022/03/23 12:34:20;;;;;;;14.70;10.38;;;28.10;29.50;;;;;;4935895;28;20320;-80
2022/03/23 12:36:56;;;;;;;15.25;9.02;;;28.40;28.80;;;;;;4896345;29;20517;-84
2022/03/23 12:39:31;;;;;;;16.05;8.23;;;28.40;28.80;;;;;;4894479;29;20033;-84
2022/03/23 12:42:25;;;;;;;16.50;8.82;;;28.80;29.00;;;;;;4919486;29;20046;-83
2022/03/23 12:45:07;;;;;;;18.70;11.88;;;29.20;29.50;;;;;;4953834;28;20050;-86
2022/03/23 12:47:47;;;;;;;17.80;9.23;;;29.40;29.70;;;;;;4931026;29;20355;-83
2022/03/23 12:58:42;;;;;;;18.02;11.88;;;30.40;31.60;;;;;;4940181;28;20036;-78
2022/03/23 13:01:13;;;;;;;11.55;8.25;;;30.80;30.80;;;;;;4924013;28;20047;-79
2022/03/23 13:03:42;;;;;;;12.50;7.00;;;31.10;29.70;;;;;;4942381;28;20392;-79
2022/03/23 13:06:17;;;;;;;10.73;7.18;;;31.30;29.80;;;;;;4921076;29;20050;-79
2022/03/23 13:08:49;;;;;;;17.92;10.23;;;31.50;29.40;;;;;;4955044;28;20497;-79
2022/03/23 13:11:20;;;;;;;14.00;7.90;;;31.40;29.10;;;;;;4947891;28;20031;-78
2022/03/23 13:13:54;;;;;;;15.30;7.75;;;31.40;30.00;;;;;;4944392;28;20035;-78
2022/03/23 13:16:47;;;;;;;13.70;8.23;;;31.60;30.00;;;;;;4937404;28;20032;-79
2022/03/23 13:19:19;;;;;;;14.43;8.27;;;31.90;29.60;;;;;;4917386;28;20042;-77
2022/03/23 13:21:48;;;;;;;16.63;9.98;;;32.10;29.70;;;;;;4946675;29;20042;-79